createdAt,value
2023-05-06T00:00:18.986Z,53
2023-05-06T00:00:46.518Z,113
2023-05-06T00:01:03.409Z,110
2023-05-06T00:01:38.816Z,75
2023-05-06T00:02:10.774Z,61
2023-05-06T00:02:42.974Z,62
2023-05-06T00:03:14.949Z,66
2023-05-06T00:03:47.034Z,85
2023-05-06T00:04:18.865Z,101
2023-05-06T00:04:41.369Z,95
2023-05-06T00:05:04.637Z,111
2023-05-06T00:05:38.668Z,111
2023-05-06T00:06:10.942Z,124
2023-05-06T00:06:42.343Z,118
2023-05-06T00:07:14.230Z,115
2023-05-06T00:07:46.442Z,106
2023-05-06T00:08:18.349Z,94
2023-05-06T00:08:41.046Z,93
2023-05-06T00:09:03.925Z,93
2023-05-06T00:09:41.979Z,98
2023-05-06T00:10:10.513Z,169
2023-05-06T00:10:42.733Z,156
2023-05-06T00:11:14.173Z,137
2023-05-06T00:11:46.594Z,128
2023-05-06T00:12:18.637Z,148
2023-05-06T00:12:41.110Z,125
2023-05-06T00:13:04.126Z,128
2023-05-06T00:13:39.231Z,144
2023-05-06T00:14:11.300Z,126
2023-05-06T00:14:43.063Z,87
2023-05-06T00:15:15.316Z,150
2023-05-06T00:15:46.271Z,122
2023-05-06T00:16:18.628Z,116
2023-05-06T00:16:41.428Z,108
2023-05-06T00:17:03.865Z,102
2023-05-06T00:17:39.752Z,114
2023-05-06T00:18:10.961Z,141
2023-05-06T00:18:42.810Z,112
2023-05-06T00:19:14.975Z,129
2023-05-06T00:19:47.257Z,99
2023-05-06T00:20:18.458Z,111
2023-05-06T00:20:41.387Z,117
2023-05-06T00:21:04.298Z,96
2023-05-06T00:21:38.492Z,125
2023-05-06T00:22:10.543Z,134
2023-05-06T00:22:42.628Z,107
2023-05-06T00:23:14.151Z,85
2023-05-06T00:23:46.150Z,113
2023-05-06T00:24:18.992Z,120
2023-05-06T00:24:41.733Z,120
2023-05-06T00:25:04.028Z,108
2023-05-06T00:25:39.190Z,110
2023-05-06T00:26:10.196Z,102
2023-05-06T00:26:43.808Z,134
2023-05-06T00:27:14.490Z,172
2023-05-06T00:27:47.246Z,122
2023-05-06T00:28:18.218Z,86
2023-05-06T00:28:40.820Z,92
2023-05-06T00:29:03.219Z,104
2023-05-06T00:29:38.363Z,133
2023-05-06T00:30:10.682Z,111
2023-05-06T00:30:42.796Z,60
2023-05-06T00:31:14.255Z,92
2023-05-06T00:31:46.247Z,110
2023-05-06T00:32:18.182Z,99
2023-05-06T00:32:41.037Z,93
2023-05-06T00:33:03.865Z,100
2023-05-06T00:33:39.056Z,82
2023-05-06T00:34:10.702Z,85
2023-05-06T00:34:42.460Z,64
2023-05-06T00:35:14.187Z,64
2023-05-06T00:35:46.396Z,78
2023-05-06T00:36:18.325Z,81
2023-05-06T00:36:41.141Z,92
2023-05-06T00:37:04.260Z,104
2023-05-06T00:37:39.004Z,127
2023-05-06T00:38:10.955Z,141
2023-05-06T00:38:42.760Z,82
2023-05-06T00:39:15.228Z,56
2023-05-06T00:39:46.340Z,93
2023-05-06T00:40:18.506Z,64
2023-05-06T00:40:41.078Z,57
2023-05-06T00:41:03.656Z,53
2023-05-06T00:41:38.567Z,49
2023-05-06T00:42:10.259Z,93
2023-05-06T00:42:42.342Z,137
2023-05-06T00:43:14.309Z,120
2023-05-06T00:43:47.144Z,113
2023-05-06T00:44:18.640Z,107
2023-05-06T00:44:41.476Z,111
2023-05-06T00:45:03.948Z,101
2023-05-06T00:45:38.691Z,114
2023-05-06T00:46:10.345Z,103
2023-05-06T00:46:42.393Z,107
2023-05-06T00:47:14.804Z,103
2023-05-06T00:47:46.870Z,115
2023-05-06T00:48:18.726Z,109
2023-05-06T00:48:41.416Z,88
2023-05-06T00:49:03.726Z,102
2023-05-06T00:49:38.633Z,113
2023-05-06T00:50:11.993Z,118
2023-05-06T00:50:43.099Z,135
2023-05-06T00:51:14.518Z,116
2023-05-06T00:51:46.682Z,116
2023-05-06T00:52:18.762Z,133
2023-05-06T00:52:42.707Z,146
2023-05-06T00:53:04.251Z,116
2023-05-06T00:53:38.531Z,96
2023-05-06T00:54:10.265Z,97
2023-05-06T00:54:42.321Z,68
2023-05-06T00:55:14.538Z,112
2023-05-06T00:55:46.475Z,113
2023-05-06T00:56:20.801Z,104
2023-05-06T00:56:41.392Z,89
2023-05-06T00:57:04.163Z,88
2023-05-06T00:57:38.418Z,93
2023-05-06T00:58:10.160Z,116
2023-05-06T00:58:42.341Z,146
2023-05-06T00:59:14.362Z,164
2023-05-06T00:59:46.476Z,111
2023-05-06T01:00:24.535Z,118
2023-05-06T01:00:42.129Z,99
2023-05-06T01:01:04.976Z,126
2023-05-06T01:01:39.052Z,152
2023-05-06T01:02:10.590Z,152
2023-05-06T01:02:47.541Z,170
2023-05-06T01:03:15.223Z,137
2023-05-06T01:03:46.717Z,106
2023-05-06T01:04:18.692Z,158
2023-05-06T01:04:41.178Z,94
2023-05-06T01:05:03.599Z,134
2023-05-06T01:05:40.375Z,93
2023-05-06T01:06:10.287Z,69
2023-05-06T01:06:42.763Z,55
2023-05-06T01:07:14.197Z,46
2023-05-06T01:07:46.657Z,37
2023-05-06T01:08:18.702Z,34
2023-05-06T01:08:41.383Z,40
2023-05-06T01:09:05.437Z,50
2023-05-06T01:09:41.820Z,41
2023-05-06T01:10:10.440Z,47
2023-05-06T01:10:42.560Z,57
2023-05-06T01:11:15.925Z,64
2023-05-06T01:11:46.525Z,61
2023-05-06T01:12:19.166Z,86
2023-05-06T01:12:42.003Z,101
2023-05-06T01:13:04.768Z,92
2023-05-06T01:13:41.045Z,98
2023-05-06T01:14:10.691Z,86
2023-05-06T01:14:42.705Z,59
2023-05-06T01:15:15.042Z,56
2023-05-06T01:15:46.721Z,49
2023-05-06T01:16:18.268Z,346
2023-05-06T01:16:41.380Z,339
2023-05-06T01:17:03.307Z,339
2023-05-06T01:17:38.632Z,341
2023-05-06T01:18:10.345Z,333
2023-05-06T01:18:42.638Z,313
2023-05-06T01:19:16.035Z,292
2023-05-06T01:19:46.895Z,296
2023-05-06T01:20:18.982Z,327
2023-05-06T01:20:41.873Z,331
2023-05-06T01:21:04.683Z,337
2023-05-06T01:21:39.276Z,341
2023-05-06T01:22:10.278Z,342
2023-05-06T01:22:42.278Z,342
2023-05-06T01:23:14.308Z,342
2023-05-06T01:23:46.267Z,339
2023-05-06T01:24:18.304Z,342
2023-05-06T01:24:42.495Z,343
2023-05-06T01:25:04.624Z,348
2023-05-06T01:25:38.366Z,348
2023-05-06T01:26:10.761Z,355
2023-05-06T01:26:43.632Z,355
2023-05-06T01:27:14.368Z,355
2023-05-06T01:27:47.723Z,355
2023-05-06T01:28:18.790Z,355
2023-05-06T01:28:43.274Z,355
2023-05-06T01:29:04.219Z,353
2023-05-06T01:29:38.285Z,353
2023-05-06T01:30:10.808Z,353
2023-05-06T01:30:43.436Z,353
2023-05-06T01:31:14.475Z,0
2023-05-06T01:31:46.718Z,10
2023-05-06T01:32:18.693Z,20
2023-05-06T01:32:43.796Z,20
2023-05-06T01:33:04.233Z,22
2023-05-06T01:33:38.489Z,22
2023-05-06T01:34:11.372Z,22
2023-05-06T01:34:44.375Z,24
2023-05-06T01:35:15.113Z,22
2023-05-06T01:35:46.320Z,76
2023-05-06T01:36:18.411Z,55
2023-05-06T01:36:41.070Z,73
2023-05-06T01:37:06.248Z,153
2023-05-06T01:37:38.797Z,96
2023-05-06T01:38:10.719Z,87
2023-05-06T01:38:45.198Z,91
2023-05-06T01:39:15.464Z,82
2023-05-06T01:39:46.504Z,70
2023-05-06T01:40:18.577Z,70
2023-05-06T01:40:41.541Z,67
2023-05-06T01:41:04.102Z,55
2023-05-06T01:41:40.092Z,53
2023-05-06T01:42:10.375Z,0
2023-05-06T01:42:42.389Z,290
2023-05-06T01:43:14.217Z,301
2023-05-06T01:43:46.421Z,314
2023-05-06T01:44:18.449Z,326
2023-05-06T01:44:41.057Z,324
2023-05-06T01:45:03.802Z,329
2023-05-06T01:45:38.273Z,329
2023-05-06T01:46:10.954Z,329
2023-05-06T01:46:43.420Z,333
2023-05-06T01:47:14.583Z,338
2023-05-06T01:47:47.188Z,333
2023-05-06T01:48:18.374Z,339
2023-05-06T01:48:41.075Z,345
2023-05-06T01:49:03.576Z,347
2023-05-06T01:49:38.271Z,349
2023-05-06T01:50:10.429Z,355
2023-05-06T01:50:42.373Z,355
2023-05-06T01:51:14.407Z,15
2023-05-06T01:51:47.087Z,35
2023-05-06T01:52:18.627Z,75
2023-05-06T01:52:41.103Z,74
2023-05-06T01:53:04.230Z,70
2023-05-06T01:53:39.449Z,59
2023-05-06T01:54:10.675Z,59
2023-05-06T01:54:42.586Z,62
2023-05-06T01:55:15.100Z,60
2023-05-06T01:55:47.300Z,71
2023-05-06T01:56:18.397Z,72
2023-05-06T01:56:41.035Z,67
2023-05-06T01:57:03.587Z,76
2023-05-06T01:57:38.278Z,75
2023-05-06T01:58:10.324Z,73
2023-05-06T01:58:43.712Z,61
2023-05-06T01:59:14.596Z,71
2023-05-06T01:59:48.169Z,75
2023-05-06T02:00:18.364Z,79
2023-05-06T02:00:41.449Z,69
2023-05-06T02:01:04.005Z,73
2023-05-06T02:01:39.064Z,59
2023-05-06T02:02:10.589Z,69
2023-05-06T02:02:42.835Z,69
2023-05-06T02:03:17.172Z,68
2023-05-06T02:03:55.160Z,71
2023-05-06T02:04:17.456Z,73
2023-05-06T02:04:39.926Z,54
2023-05-06T02:05:02.420Z,59
2023-05-06T02:05:38.344Z,59
2023-05-06T02:06:10.431Z,62
2023-05-06T02:06:42.169Z,45
2023-05-06T02:07:14.492Z,74
2023-05-06T02:07:46.251Z,68
2023-05-06T02:08:18.146Z,78
2023-05-06T02:08:40.926Z,71
2023-05-06T02:09:03.220Z,80
2023-05-06T02:09:38.586Z,78
2023-05-06T02:10:10.504Z,83
2023-05-06T02:10:42.587Z,68
2023-05-06T02:11:14.266Z,51
2023-05-06T02:11:46.212Z,65
2023-05-06T02:12:18.348Z,75
2023-05-06T02:12:46.686Z,77
2023-05-06T02:13:09.096Z,85
2023-05-06T02:13:38.402Z,74
2023-05-06T02:14:10.780Z,57
2023-05-06T02:14:42.325Z,78
2023-05-06T02:15:14.243Z,78
2023-05-06T02:15:46.266Z,67
2023-05-06T02:16:18.171Z,67
2023-05-06T02:16:40.957Z,59
2023-05-06T02:17:03.278Z,65
2023-05-06T02:17:38.403Z,67
2023-05-06T02:18:10.283Z,69
2023-05-06T02:18:42.247Z,82
2023-05-06T02:19:43.215Z,80
2023-05-06T02:20:15.013Z,80
2023-05-06T02:20:46.340Z,78
2023-05-06T02:21:23.126Z,77
2023-05-06T02:21:45.644Z,64
2023-05-06T02:22:08.117Z,71
2023-05-06T02:22:42.371Z,72
2023-05-06T02:23:14.075Z,70
2023-05-06T02:23:46.399Z,68
2023-05-06T02:24:20.225Z,69
2023-05-06T02:24:45.307Z,62
2023-05-06T02:25:05.426Z,84
2023-05-06T02:25:38.596Z,82
2023-05-06T02:26:11.054Z,132
2023-05-06T02:26:42.940Z,131
2023-05-06T02:27:14.432Z,111
2023-05-06T02:27:46.455Z,120
2023-05-06T02:28:19.161Z,82
2023-05-06T02:28:41.823Z,71
2023-05-06T02:29:04.367Z,90
2023-05-06T02:29:38.511Z,77
2023-05-06T02:30:10.944Z,101
2023-05-06T02:30:42.548Z,89
2023-05-06T02:31:14.347Z,78
2023-05-06T02:31:46.444Z,132
2023-05-06T02:32:18.400Z,85
2023-05-06T02:32:41.210Z,77
2023-05-06T02:33:03.998Z,79
2023-05-06T02:33:38.360Z,128
2023-05-06T02:34:10.253Z,65
2023-05-06T02:34:42.271Z,93
2023-05-06T02:35:14.249Z,65
2023-05-06T02:35:46.247Z,68
2023-05-06T02:36:18.195Z,40
2023-05-06T02:36:40.875Z,42
2023-05-06T02:37:03.173Z,60
2023-05-06T02:37:38.560Z,39
2023-05-06T02:38:10.526Z,64
2023-05-06T02:38:42.426Z,80
2023-05-06T02:39:14.121Z,68
2023-05-06T02:39:46.287Z,91
2023-05-06T02:40:18.654Z,45
2023-05-06T02:40:41.236Z,87
2023-05-06T02:41:05.760Z,82
2023-05-06T02:41:39.278Z,101
2023-05-06T02:42:11.219Z,121
2023-05-06T02:42:42.168Z,53
2023-05-06T02:43:14.601Z,121
2023-05-06T02:43:47.109Z,68
2023-05-06T02:44:18.220Z,68
2023-05-06T02:44:40.818Z,86
2023-05-06T02:45:03.356Z,74
2023-05-06T02:45:38.501Z,42
2023-05-06T02:46:10.208Z,69
2023-05-06T02:46:42.485Z,103
2023-05-06T02:47:15.205Z,90
2023-05-06T02:47:46.743Z,60
2023-05-06T02:48:18.668Z,71
2023-05-06T02:48:41.223Z,71
2023-05-06T02:49:03.966Z,94
2023-05-06T02:49:38.569Z,91
2023-05-06T02:50:10.357Z,66
2023-05-06T02:50:42.200Z,72
2023-05-06T02:51:14.148Z,78
2023-05-06T02:51:46.202Z,79
2023-05-06T02:52:18.277Z,76
2023-05-06T02:52:40.973Z,88
2023-05-06T02:53:03.379Z,128
2023-05-06T02:53:38.271Z,132
2023-05-06T02:54:10.580Z,136
2023-05-06T02:54:42.732Z,123
2023-05-06T02:55:14.448Z,99
2023-05-06T02:55:46.948Z,125
2023-05-06T02:56:22.045Z,107
2023-05-06T02:56:44.824Z,124
2023-05-06T02:57:22.161Z,125
2023-05-06T02:57:44.770Z,138
2023-05-06T02:58:07.448Z,134
2023-05-06T02:58:42.572Z,150
2023-05-06T02:59:15.695Z,122
2023-05-06T02:59:46.111Z,137
2023-05-06T03:00:20.888Z,122
2023-05-06T03:00:41.218Z,124
2023-05-06T03:01:03.806Z,103
2023-05-06T03:01:46.331Z,111
2023-05-06T03:02:08.561Z,133
2023-05-06T03:02:42.137Z,140
2023-05-06T03:03:14.342Z,125
2023-05-06T03:03:46.389Z,127
2023-05-06T03:04:18.540Z,131
2023-05-06T03:04:46.550Z,131
2023-05-06T03:05:22.900Z,111
2023-05-06T03:05:45.322Z,140
2023-05-06T03:06:08.014Z,145
2023-05-06T03:06:42.208Z,70
2023-05-06T03:07:14.071Z,91
2023-05-06T03:07:46.288Z,120
2023-05-06T03:08:18.058Z,137
2023-05-06T03:08:40.761Z,129
2023-05-06T03:09:03.160Z,133
2023-05-06T03:09:38.434Z,134
2023-05-06T03:10:10.692Z,135
2023-05-06T03:10:42.108Z,127
2023-05-06T03:11:14.363Z,92
2023-05-06T03:11:46.644Z,108
2023-05-06T03:12:21.203Z,131
2023-05-06T03:12:43.603Z,123
2023-05-06T03:13:06.235Z,113
2023-05-06T03:13:38.526Z,129
2023-05-06T03:14:10.594Z,118
2023-05-06T03:14:42.718Z,122
2023-05-06T03:15:14.953Z,115
2023-05-06T03:15:46.961Z,134
2023-05-06T03:16:18.119Z,71
2023-05-06T03:16:40.804Z,80
2023-05-06T03:17:03.305Z,70
2023-05-06T03:17:38.313Z,72
2023-05-06T03:18:11.725Z,83
2023-05-06T03:18:42.146Z,121
2023-05-06T03:19:16.159Z,61
2023-05-06T03:19:46.672Z,73
2023-05-06T03:20:18.358Z,67
2023-05-06T03:20:41.352Z,146
2023-05-06T03:21:03.937Z,76
2023-05-06T03:21:38.502Z,83
2023-05-06T03:22:10.318Z,78
2023-05-06T03:22:42.521Z,63
2023-05-06T03:23:14.052Z,133
2023-05-06T03:23:46.334Z,118
2023-05-06T03:24:18.372Z,113
2023-05-06T03:24:41.166Z,99
2023-05-06T03:25:03.837Z,102
2023-05-06T03:25:38.251Z,74
2023-05-06T03:26:10.497Z,58
2023-05-06T03:26:42.188Z,129
2023-05-06T03:27:14.812Z,81
2023-05-06T03:27:46.970Z,61
2023-05-06T03:28:18.748Z,82
2023-05-06T03:28:41.487Z,109
2023-05-06T03:29:03.868Z,135
2023-05-06T03:29:38.260Z,103
2023-05-06T03:30:10.299Z,52
2023-05-06T03:30:42.589Z,60
2023-05-06T03:31:14.283Z,89
2023-05-06T03:31:46.316Z,137
2023-05-06T03:32:18.152Z,141
2023-05-06T03:32:40.892Z,135
2023-05-06T03:33:03.198Z,79
2023-05-06T03:33:38.139Z,114
2023-05-06T03:34:10.253Z,123
2023-05-06T03:34:42.192Z,98
2023-05-06T03:35:14.291Z,94
2023-05-06T03:35:46.087Z,65
2023-05-06T03:36:18.318Z,59
2023-05-06T03:36:41.039Z,104
2023-05-06T03:37:03.465Z,93
2023-05-06T03:37:38.315Z,131
2023-05-06T03:38:10.166Z,85
2023-05-06T03:38:42.157Z,65
2023-05-06T03:39:14.052Z,72
2023-05-06T03:39:46.208Z,57
2023-05-06T03:40:18.156Z,87
2023-05-06T03:40:40.956Z,105
2023-05-06T03:41:03.776Z,138
2023-05-06T03:41:38.615Z,137
2023-05-06T03:42:11.137Z,136
2023-05-06T03:42:42.638Z,124
2023-05-06T03:43:14.685Z,93
2023-05-06T03:43:46.380Z,131
2023-05-06T03:44:18.377Z,102
2023-05-06T03:44:41.078Z,122
2023-05-06T03:45:03.917Z,69
2023-05-06T03:45:38.537Z,72
2023-05-06T03:46:10.889Z,96
2023-05-06T03:46:42.612Z,124
2023-05-06T03:47:14.693Z,61
2023-05-06T03:47:47.003Z,99
2023-05-06T03:48:18.173Z,105
2023-05-06T03:48:41.076Z,88
2023-05-06T03:49:03.962Z,45
2023-05-06T03:49:38.459Z,114
2023-05-06T03:50:10.890Z,148
2023-05-06T03:50:42.205Z,197
2023-05-06T03:51:14.270Z,151
2023-05-06T03:51:46.238Z,232
2023-05-06T03:52:18.536Z,134
2023-05-06T03:52:41.202Z,131
2023-05-06T03:53:04.119Z,116
2023-05-06T03:53:38.536Z,171
2023-05-06T03:54:10.112Z,141
2023-05-06T03:54:42.612Z,131
2023-05-06T03:55:15.981Z,149
2023-05-06T03:55:46.387Z,203
2023-05-06T03:56:18.508Z,145
2023-05-06T03:56:41.077Z,148
2023-05-06T03:57:08.043Z,141
2023-05-06T03:57:38.968Z,167
2023-05-06T03:58:10.767Z,163
2023-05-06T03:58:42.657Z,149
2023-05-06T03:59:15.199Z,83
2023-05-06T03:59:46.316Z,128
2023-05-06T04:00:19.581Z,118
2023-05-06T04:00:44.913Z,118
2023-05-06T04:01:05.787Z,119
2023-05-06T04:01:38.929Z,132
2023-05-06T04:02:10.579Z,72
2023-05-06T04:02:44.108Z,121
2023-05-06T04:03:14.528Z,156
2023-05-06T04:03:47.454Z,100
2023-05-06T04:04:18.573Z,93
2023-05-06T04:04:40.991Z,109
2023-05-06T04:05:06.027Z,115
2023-05-06T04:05:39.146Z,107
2023-05-06T04:06:10.893Z,64
2023-05-06T04:06:42.411Z,116
2023-05-06T04:07:14.287Z,103
2023-05-06T04:07:46.160Z,58
2023-05-06T04:08:18.197Z,84
2023-05-06T04:08:40.939Z,79
2023-05-06T04:09:03.368Z,133
2023-05-06T04:09:38.714Z,91
2023-05-06T04:10:10.646Z,42
2023-05-06T04:10:42.837Z,73
2023-05-06T04:11:14.045Z,141
2023-05-06T04:11:46.643Z,107
2023-05-06T04:12:18.496Z,179
2023-05-06T04:12:41.021Z,133
2023-05-06T04:13:04.089Z,138
2023-05-06T04:13:39.088Z,157
2023-05-06T04:14:10.872Z,130
2023-05-06T04:14:42.591Z,126
2023-05-06T04:15:14.622Z,125
2023-05-06T04:15:46.216Z,76
2023-05-06T04:16:18.352Z,72
2023-05-06T04:16:41.199Z,120
2023-05-06T04:17:03.450Z,60
2023-05-06T04:17:38.350Z,76
2023-05-06T04:18:12.494Z,68
2023-05-06T04:18:43.030Z,93
2023-05-06T04:19:16.595Z,129
2023-05-06T04:19:46.727Z,161
2023-05-06T04:20:18.216Z,120
2023-05-06T04:20:41.115Z,134
2023-05-06T04:21:04.421Z,112
2023-05-06T04:21:38.675Z,186
2023-05-06T04:22:11.210Z,115
2023-05-06T04:22:42.149Z,150
2023-05-06T04:23:14.164Z,94
2023-05-06T04:23:46.254Z,127
2023-05-06T04:24:18.310Z,172
2023-05-06T04:24:41.001Z,173
2023-05-06T04:25:03.489Z,121
2023-05-06T04:25:38.296Z,124
2023-05-06T04:26:10.146Z,145
2023-05-06T04:26:42.165Z,143
2023-05-06T04:27:14.037Z,122
2023-05-06T04:27:48.234Z,131
2023-05-06T04:28:18.639Z,119
2023-05-06T04:28:41.516Z,119
2023-05-06T04:29:03.869Z,132
2023-05-06T04:29:38.612Z,120
2023-05-06T04:30:10.943Z,115
2023-05-06T04:30:42.586Z,107
2023-05-06T04:31:14.828Z,137
2023-05-06T04:31:46.227Z,157
2023-05-06T04:32:18.287Z,121
2023-05-06T04:32:41.019Z,132
2023-05-06T04:33:03.878Z,102
2023-05-06T04:33:38.713Z,120
2023-05-06T04:34:10.871Z,150
2023-05-06T04:34:42.327Z,159
2023-05-06T04:35:14.198Z,128
2023-05-06T04:35:46.255Z,130
2023-05-06T04:36:18.502Z,103
2023-05-06T04:36:41.025Z,110
2023-05-06T04:37:03.699Z,135
2023-05-06T04:37:38.050Z,140
2023-05-06T04:38:11.697Z,140
2023-05-06T04:38:42.357Z,145
2023-05-06T04:39:14.634Z,102
2023-05-06T04:39:46.345Z,167
2023-05-06T04:40:18.204Z,169
2023-05-06T04:40:41.020Z,148
2023-05-06T04:41:03.714Z,141
2023-05-06T04:41:38.506Z,123
2023-05-06T04:42:12.487Z,144
2023-05-06T04:42:50.715Z,121
2023-05-06T04:43:13.063Z,136
2023-05-06T04:43:47.058Z,164
2023-05-06T04:44:18.734Z,162
2023-05-06T04:44:41.202Z,123
2023-05-06T04:45:04.505Z,156
2023-05-06T04:45:39.786Z,121
2023-05-06T04:46:13.575Z,141
2023-05-06T04:46:42.492Z,108
2023-05-06T04:47:14.779Z,73
2023-05-06T04:47:46.790Z,79
2023-05-06T04:48:19.827Z,110
2023-05-06T04:48:42.494Z,75
2023-05-06T04:49:05.039Z,35
2023-05-06T04:49:38.571Z,115
2023-05-06T04:50:10.347Z,105
2023-05-06T04:50:42.810Z,73
2023-05-06T04:51:14.983Z,55
2023-05-06T04:51:47.273Z,56
2023-05-06T04:52:18.410Z,79
2023-05-06T04:52:40.881Z,64
2023-05-06T04:53:03.721Z,137
2023-05-06T04:53:38.083Z,124
2023-05-06T04:54:10.429Z,121
2023-05-06T04:54:43.012Z,121
2023-05-06T04:55:14.758Z,69
2023-05-06T04:55:46.586Z,110
2023-05-06T04:56:18.679Z,134
2023-05-06T04:56:41.370Z,109
2023-05-06T04:57:04.040Z,124
2023-05-06T04:57:38.391Z,47
2023-05-06T04:58:10.184Z,115
2023-05-06T04:58:42.999Z,165
2023-05-06T04:59:15.741Z,167
2023-05-06T04:59:46.586Z,149
2023-05-06T05:00:20.431Z,177
2023-05-06T05:00:43.291Z,135
2023-05-06T05:01:08.776Z,166
2023-05-06T05:01:38.734Z,156
2023-05-06T05:02:10.184Z,127
2023-05-06T05:02:42.247Z,110
2023-05-06T05:03:16.819Z,134
2023-05-06T05:03:46.803Z,65
2023-05-06T05:04:19.316Z,114
2023-05-06T05:04:41.745Z,112
2023-05-06T05:05:04.042Z,108
2023-05-06T05:05:38.550Z,98
2023-05-06T05:06:10.134Z,96
2023-05-06T05:06:42.281Z,131
2023-05-06T05:07:16.821Z,138
2023-05-06T05:07:46.231Z,132
2023-05-06T05:08:18.676Z,154
2023-05-06T05:08:40.991Z,64
2023-05-06T05:09:05.553Z,136
2023-05-06T05:09:39.492Z,85
2023-05-06T05:10:12.273Z,72
2023-05-06T05:10:42.193Z,112
2023-05-06T05:11:14.178Z,135
2023-05-06T05:11:46.157Z,111
2023-05-06T05:12:18.250Z,82
2023-05-06T05:12:42.347Z,80
2023-05-06T05:13:03.993Z,51
2023-05-06T05:13:38.769Z,130
2023-05-06T05:14:10.444Z,103
2023-05-06T05:14:43.279Z,101
2023-05-06T05:15:18.217Z,97
2023-05-06T05:15:39.935Z,63
2023-05-06T05:16:14.377Z,74
2023-05-06T05:16:46.106Z,75
2023-05-06T05:17:22.289Z,98
2023-05-06T05:17:44.884Z,138
2023-05-06T05:18:07.280Z,127
2023-05-06T05:18:42.186Z,101
2023-05-06T05:19:17.066Z,99
2023-05-06T05:19:46.285Z,71
2023-05-06T05:20:20.661Z,65
2023-05-06T05:20:41.416Z,56
2023-05-06T05:21:03.318Z,75
2023-05-06T05:21:38.117Z,102
2023-05-06T05:22:10.779Z,47
2023-05-06T05:22:42.183Z,56
2023-05-06T05:23:14.021Z,127
2023-05-06T05:23:46.061Z,101
2023-05-06T05:24:20.057Z,116
2023-05-06T05:24:42.631Z,44
2023-05-06T05:25:04.594Z,37
2023-05-06T05:25:38.149Z,83
2023-05-06T05:26:10.215Z,85
2023-05-06T05:26:42.138Z,64
2023-05-06T05:27:14.086Z,160
2023-05-06T05:27:46.174Z,130
2023-05-06T05:28:20.939Z,73
2023-05-06T05:28:41.329Z,80
2023-05-06T05:29:03.639Z,150
2023-05-06T05:29:38.222Z,110
2023-05-06T05:30:11.224Z,135
2023-05-06T05:30:42.233Z,151
2023-05-06T05:31:14.333Z,131
2023-05-06T05:31:46.305Z,99
2023-05-06T05:32:18.226Z,168
2023-05-06T05:32:41.230Z,190
2023-05-06T05:33:03.338Z,186
2023-05-06T05:33:38.234Z,88
2023-05-06T05:34:10.154Z,109
2023-05-06T05:34:42.020Z,127
2023-05-06T05:35:14.060Z,85
2023-05-06T05:35:46.159Z,178
2023-05-06T05:36:18.158Z,144
2023-05-06T05:36:41.152Z,158
2023-05-06T05:37:03.494Z,157
2023-05-06T05:37:38.304Z,99
2023-05-06T05:38:10.148Z,104
2023-05-06T05:38:42.913Z,53
2023-05-06T05:39:14.789Z,56
2023-05-06T05:39:46.098Z,64
2023-05-06T05:40:18.582Z,105
2023-05-06T05:40:41.222Z,107
2023-05-06T05:41:03.887Z,133
2023-05-06T05:41:38.513Z,64
2023-05-06T05:42:10.330Z,115
2023-05-06T05:42:42.415Z,89
2023-05-06T05:43:14.415Z,107
2023-05-06T05:43:47.953Z,116
2023-05-06T05:44:18.352Z,67
2023-05-06T05:44:41.008Z,82
2023-05-06T05:45:05.097Z,69
2023-05-06T05:45:38.807Z,77
2023-05-06T05:46:10.635Z,97
2023-05-06T05:46:42.111Z,74
2023-05-06T05:47:14.162Z,134
2023-05-06T05:47:46.551Z,110
2023-05-06T05:48:18.069Z,80
2023-05-06T05:48:40.836Z,65
2023-05-06T05:49:03.637Z,110
2023-05-06T05:49:38.943Z,96
2023-05-06T05:50:10.624Z,70
2023-05-06T05:50:42.715Z,100
2023-05-06T05:51:14.028Z,112
2023-05-06T05:51:46.214Z,91
2023-05-06T05:52:18.042Z,124
2023-05-06T05:52:41.096Z,127
2023-05-06T05:53:03.883Z,92
2023-05-06T05:53:38.653Z,70
2023-05-06T05:54:12.159Z,133
2023-05-06T05:54:42.069Z,123
2023-05-06T05:55:14.338Z,141
2023-05-06T05:55:46.572Z,140
2023-05-06T05:56:18.849Z,136
2023-05-06T05:56:41.513Z,110
2023-05-06T05:57:03.901Z,117
2023-05-06T05:57:38.113Z,169
2023-05-06T05:58:11.025Z,147
2023-05-06T05:58:42.216Z,121
2023-05-06T05:59:14.154Z,135
2023-05-06T05:59:46.518Z,97
2023-05-06T06:00:27.507Z,73
2023-05-06T06:00:41.864Z,58
2023-05-06T06:01:34.411Z,244
2023-05-06T06:02:10.320Z,278
2023-05-06T06:02:42.430Z,335
2023-05-06T06:03:14.308Z,158
2023-05-06T06:03:47.012Z,149
2023-05-06T06:04:14.722Z,204
2023-05-06T06:04:46.884Z,119
2023-05-06T06:05:23.008Z,158
2023-05-06T06:05:45.318Z,179
2023-05-06T06:06:07.759Z,169
2023-05-06T06:06:42.407Z,158
2023-05-06T06:07:14.614Z,123
2023-05-06T06:07:46.612Z,78
2023-05-06T06:08:18.423Z,34
2023-05-06T06:08:41.598Z,116
2023-05-06T06:09:03.747Z,39
2023-05-06T06:09:38.333Z,71
2023-05-06T06:10:10.338Z,69
2023-05-06T06:10:42.371Z,130
2023-05-06T06:11:14.279Z,112
2023-05-06T06:11:46.468Z,155
2023-05-06T06:12:18.129Z,163
2023-05-06T06:12:41.066Z,130
2023-05-06T06:13:05.793Z,116
2023-05-06T06:13:38.554Z,77
2023-05-06T06:14:13.351Z,127
2023-05-06T06:14:42.493Z,139
2023-05-06T06:15:14.394Z,123
2023-05-06T06:15:46.104Z,99
2023-05-06T06:16:18.937Z,102
2023-05-06T06:16:41.598Z,123
2023-05-06T06:17:04.418Z,89
2023-05-06T06:17:39.079Z,85
2023-05-06T06:18:15.933Z,72
2023-05-06T06:18:42.710Z,52
2023-05-06T06:19:17.091Z,77
2023-05-06T06:19:46.604Z,60
2023-05-06T06:20:18.194Z,101
2023-05-06T06:20:41.508Z,73
2023-05-06T06:21:03.840Z,69
2023-05-06T06:21:38.272Z,73
2023-05-06T06:22:10.341Z,54
2023-05-06T06:22:43.087Z,74
2023-05-06T06:23:15.501Z,66
2023-05-06T06:23:46.380Z,73
2023-05-06T06:24:18.135Z,73
2023-05-06T06:24:40.859Z,100
2023-05-06T06:25:03.151Z,99
2023-05-06T06:25:38.369Z,74
2023-05-06T06:26:12.074Z,110
2023-05-06T06:26:42.694Z,65
2023-05-06T06:27:14.675Z,39
2023-05-06T06:27:46.196Z,36
2023-05-06T06:28:18.487Z,36
2023-05-06T06:28:40.964Z,37
2023-05-06T06:29:03.358Z,39
2023-05-06T06:29:46.387Z,39
2023-05-06T06:30:11.077Z,47
2023-05-06T06:30:42.776Z,241
2023-05-06T06:31:14.393Z,96
2023-05-06T06:31:47.857Z,69
2023-05-06T06:32:19.069Z,77
2023-05-06T06:32:41.825Z,75
2023-05-06T06:33:04.594Z,79
2023-05-06T06:33:38.296Z,63
2023-05-06T06:34:10.050Z,15
2023-05-06T06:34:42.486Z,41
2023-05-06T06:35:14.047Z,70
2023-05-06T06:35:46.325Z,71
2023-05-06T06:36:18.130Z,77
2023-05-06T06:36:40.919Z,75
2023-05-06T06:37:03.306Z,79
2023-05-06T06:37:38.210Z,71
2023-05-06T06:38:10.383Z,67
2023-05-06T06:38:42.158Z,64
2023-05-06T06:39:14.403Z,35
2023-05-06T06:39:46.130Z,72
2023-05-06T06:40:18.750Z,71
2023-05-06T06:40:41.090Z,70
2023-05-06T06:41:03.663Z,69
2023-05-06T06:41:38.375Z,59
2023-05-06T06:42:10.081Z,95
2023-05-06T06:42:42.165Z,28
2023-05-06T06:43:14.170Z,80
2023-05-06T06:43:46.450Z,92
2023-05-06T06:44:18.367Z,82
2023-05-06T06:44:41.046Z,72
2023-05-06T06:45:04.137Z,76
2023-05-06T06:45:38.167Z,112
2023-05-06T06:46:10.566Z,70
2023-05-06T06:46:42.571Z,124
2023-05-06T06:47:14.358Z,131
2023-05-06T06:47:46.698Z,72
2023-05-06T06:48:18.214Z,90
2023-05-06T06:48:40.860Z,89
2023-05-06T06:49:03.202Z,67
2023-05-06T06:49:40.751Z,84
2023-05-06T06:50:10.798Z,81
2023-05-06T06:50:42.553Z,54
2023-05-06T06:51:14.818Z,67
2023-05-06T06:51:46.335Z,76
2023-05-06T06:52:18.195Z,24
2023-05-06T06:52:40.947Z,75
2023-05-06T06:53:06.151Z,75
2023-05-06T06:53:38.132Z,58
2023-05-06T06:54:10.423Z,51
2023-05-06T06:54:42.453Z,73
2023-05-06T06:55:14.881Z,69
2023-05-06T06:55:46.236Z,118
2023-05-06T06:56:21.271Z,76
2023-05-06T06:56:43.800Z,87
2023-05-06T06:57:22.276Z,82
2023-05-06T06:57:44.627Z,62
2023-05-06T06:58:07.091Z,91
2023-05-06T06:58:42.530Z,123
2023-05-06T06:59:14.150Z,67
2023-05-06T06:59:46.226Z,68
2023-05-06T07:00:25.234Z,53
2023-05-06T07:00:57.622Z,27
2023-05-06T07:01:19.201Z,122